createdAt,value
2024-05-09T00:00:46.001Z,7.40
2024-05-09T00:03:34.133Z,6.80
2024-05-09T00:06:02.430Z,7.20
2024-05-09T00:08:30.819Z,7.80
2024-05-09T00:10:59.019Z,7.00
2024-05-09T00:13:26.994Z,7.30
2024-05-09T00:15:54.915Z,7.60
2024-05-09T00:18:23.445Z,7.80
2024-05-09T00:20:51.795Z,8.00
2024-05-09T00:23:20.095Z,7.80
2024-05-09T00:25:48.200Z,7.30
2024-05-09T00:28:16.221Z,7.20
2024-05-09T00:30:44.317Z,7.50
2024-05-09T00:33:12.473Z,7.40
2024-05-09T00:35:41.769Z,8.10
2024-05-09T00:38:10.801Z,8.10
2024-05-09T00:40:42.217Z,7.70
2024-05-09T00:43:14.097Z,7.60
2024-05-09T00:45:44.028Z,8.00
2024-05-09T00:48:17.495Z,7.20
2024-05-09T00:50:48.412Z,7.50
2024-05-09T00:53:18.514Z,7.50
2024-05-09T00:55:47.783Z,8.00
2024-05-09T00:58:18.427Z,8.10
2024-05-09T01:00:46.679Z,8.90
2024-05-09T01:03:14.864Z,8.10
2024-05-09T01:05:44.533Z,8.50
2024-05-09T01:08:13.346Z,8.90
2024-05-09T01:10:44.210Z,10.30
2024-05-09T01:13:14.170Z,10.30
2024-05-09T01:15:42.995Z,10.10
2024-05-09T01:18:12.933Z,11.40
2024-05-09T01:20:44.390Z,10.90
2024-05-09T01:23:15.754Z,12.00
2024-05-09T01:25:46.233Z,11.80
2024-05-09T01:28:16.202Z,11.10
2024-05-09T01:30:44.358Z,9.30
2024-05-09T01:33:13.064Z,8.70
2024-05-09T01:35:42.765Z,8.10
2024-05-09T01:38:17.354Z,8.30
2024-05-09T01:40:47.130Z,7.80
2024-05-09T01:43:16.045Z,8.30
2024-05-09T01:45:44.103Z,9.50
2024-05-09T01:48:12.214Z,8.80
2024-05-09T01:50:42.687Z,8.80
2024-05-09T01:53:14.682Z,10.10
2024-05-09T01:55:44.028Z,8.70
2024-05-09T01:58:13.190Z,8.90
2024-05-09T02:00:42.949Z,8.40
2024-05-09T02:03:15.930Z,8.50
2024-05-09T02:05:48.373Z,8.10
2024-05-09T02:08:21.731Z,8.30
2024-05-09T02:10:50.772Z,8.40
2024-05-09T02:13:19.206Z,8.80
2024-05-09T02:15:47.392Z,9.20
2024-05-09T02:18:15.534Z,8.90
2024-05-09T02:20:44.144Z,9.10
2024-05-09T02:23:13.854Z,8.20
2024-05-09T02:25:42.254Z,8.30
2024-05-09T02:28:10.218Z,9.00
2024-05-09T02:30:41.171Z,8.80
2024-05-09T02:33:12.845Z,9.60
2024-05-09T02:35:43.849Z,9.70
2024-05-09T02:38:13.435Z,9.60
2024-05-09T02:40:41.819Z,9.10
2024-05-09T02:43:12.761Z,8.70
2024-05-09T02:45:41.565Z,8.60
2024-05-09T02:48:13.406Z,8.30
2024-05-09T02:53:14.392Z,8.00
2024-05-09T02:55:43.279Z,9.00
2024-05-09T02:58:11.997Z,8.80
2024-05-09T03:00:42.247Z,8.60
2024-05-09T03:03:14.343Z,7.90
2024-05-09T03:05:45.626Z,7.90
2024-05-09T03:08:14.484Z,8.50
2024-05-09T03:10:42.844Z,7.90
2024-05-09T03:13:14.844Z,7.90
2024-05-09T03:15:45.093Z,8.10
2024-05-09T03:18:13.852Z,7.70
2024-05-09T03:20:43.983Z,8.40
2024-05-09T03:23:12.568Z,9.20
2024-05-09T03:25:40.729Z,8.90
2024-05-09T03:28:08.785Z,9.10
2024-05-09T03:30:41.774Z,8.70
2024-05-09T03:33:15.193Z,9.30
2024-05-09T03:35:44.253Z,8.90
2024-05-09T03:38:12.411Z,9.00
2024-05-09T03:40:49.060Z,8.60
2024-05-09T03:43:18.895Z,8.20
2024-05-09T03:45:48.767Z,8.40
2024-05-09T03:48:17.217Z,8.90
2024-05-09T03:50:45.716Z,8.80
2024-05-09T03:53:14.521Z,9.60
2024-05-09T03:55:42.922Z,8.60
2024-05-09T03:58:12.743Z,9.60
2024-05-09T04:00:42.320Z,8.80
2024-05-09T04:03:12.248Z,8.80
2024-05-09T04:05:43.884Z,8.10
2024-05-09T04:08:15.528Z,7.40
2024-05-09T04:10:44.171Z,7.40
2024-05-09T04:13:12.299Z,7.70
2024-05-09T04:15:40.413Z,8.10
2024-05-09T04:18:08.639Z,8.00
2024-05-09T04:20:39.727Z,8.10
2024-05-09T04:23:14.342Z,8.10
2024-05-09T04:25:45.160Z,8.30
2024-05-09T04:28:14.506Z,7.90
2024-05-09T04:30:43.276Z,8.60
2024-05-09T04:33:13.707Z,7.90
2024-05-09T04:35:43.734Z,7.70
2024-05-09T04:38:13.823Z,7.30
2024-05-09T04:40:42.723Z,7.10
2024-05-09T04:43:16.133Z,7.00
2024-05-09T04:45:44.598Z,8.10
2024-05-09T04:48:12.938Z,8.20
2024-05-09T04:50:41.360Z,8.40
2024-05-09T04:53:10.851Z,7.60
2024-05-09T04:55:40.596Z,8.30
2024-05-09T04:58:09.676Z,7.50
2024-05-09T05:00:40.504Z,8.20
2024-05-09T05:03:13.263Z,9.00
2024-05-09T05:05:45.467Z,8.60
2024-05-09T05:08:19.281Z,7.70
2024-05-09T05:10:48.877Z,7.70
2024-05-09T05:13:21.608Z,8.40
2024-05-09T05:15:53.499Z,7.20
2024-05-09T05:18:22.871Z,7.30
2024-05-09T05:20:51.529Z,7.30
2024-05-09T05:23:21.083Z,7.80
2024-05-09T05:25:54.198Z,7.90
2024-05-09T05:28:23.212Z,7.60
2024-05-09T05:30:51.500Z,7.70
2024-05-09T05:33:22.586Z,7.70
2024-05-09T05:35:51.208Z,7.70
2024-05-09T05:38:21.938Z,8.30
2024-05-09T05:40:51.956Z,7.30
2024-05-09T05:43:20.514Z,7.20
2024-05-09T05:45:48.526Z,8.20
2024-05-09T05:48:17.556Z,6.90
2024-05-09T05:50:46.336Z,7.80
2024-05-09T05:53:14.680Z,8.70
2024-05-09T05:55:42.937Z,7.70
2024-05-09T05:58:14.910Z,8.00
2024-05-09T06:55:37.915Z,4.60
2024-05-09T06:58:07.239Z,5.20
2024-05-09T07:00:39.612Z,5.40
2024-05-09T07:05:40.470Z,4.10
2024-05-09T07:08:09.161Z,4.00
2024-05-09T07:10:37.532Z,4.20
2024-05-09T07:13:10.150Z,4.30
2024-05-09T07:15:38.727Z,4.60
2024-05-09T07:18:17.287Z,4.80
2024-05-09T07:20:48.384Z,5.00
2024-05-09T07:23:17.412Z,5.10
2024-05-09T07:25:46.466Z,4.50
2024-05-09T07:28:17.009Z,4.80
2024-05-09T07:30:45.725Z,5.10
2024-05-09T07:33:22.669Z,5.00
2024-05-09T07:35:52.457Z,4.60
2024-05-09T07:38:20.976Z,4.20
2024-05-09T07:40:49.545Z,4.30
2024-05-09T07:43:17.851Z,3.90
2024-05-09T07:45:52.536Z,3.80
2024-05-09T07:52:38.669Z,3.10
2024-05-09T07:53:48.053Z,3.10
2024-05-09T07:56:22.092Z,3.40
2024-05-09T07:58:53.002Z,3.00
2024-05-09T08:01:21.783Z,3.50
2024-05-09T08:03:50.763Z,3.50
2024-05-09T08:06:19.041Z,3.00
2024-05-09T08:08:47.594Z,2.40
2024-05-09T08:11:15.762Z,2.80
2024-05-09T08:13:43.906Z,2.50
2024-05-09T08:16:14.188Z,2.90
2024-05-09T08:18:42.884Z,2.60
2024-05-09T08:21:10.996Z,2.80
2024-05-09T08:23:38.998Z,2.40
2024-05-09T08:26:07.188Z,2.40
2024-05-09T08:28:35.167Z,2.60
2024-05-09T08:31:06.130Z,2.20
2024-05-09T08:33:35.423Z,1.80
2024-05-09T08:36:03.966Z,2.90
2024-05-09T08:38:31.915Z,1.90
2024-05-09T08:41:03.544Z,1.90
2024-05-09T08:43:31.656Z,2.60
2024-05-09T08:46:00.212Z,1.90
2024-05-09T08:48:30.334Z,3.00
2024-05-09T08:50:59.431Z,1.80
2024-05-09T08:53:27.815Z,2.00
2024-05-09T08:56:01.114Z,1.90
2024-05-09T08:58:34.434Z,1.60
2024-05-09T09:01:04.785Z,1.50
2024-05-09T09:03:36.567Z,1.70
2024-05-09T09:08:41.504Z,1.30
2024-05-09T09:11:10.761Z,1.50
2024-05-09T09:13:38.691Z,1.40
2024-05-09T09:16:07.136Z,1.70
2024-05-09T09:18:35.405Z,1.90
2024-05-09T09:21:04.301Z,2.00
2024-05-09T09:23:33.557Z,1.80
2024-05-09T09:26:01.761Z,1.80
2024-05-09T09:28:30.149Z,1.70
2024-05-09T09:31:05.425Z,1.90
2024-05-09T09:33:35.710Z,1.80
2024-05-09T09:36:05.851Z,1.70
2024-05-09T09:38:37.494Z,2.10
2024-05-09T09:41:08.322Z,1.80
2024-05-09T09:43:37.448Z,1.60
2024-05-09T09:46:08.609Z,1.70
2024-05-09T09:48:40.334Z,1.60
2024-05-09T09:51:09.146Z,1.60
2024-05-09T09:53:39.182Z,1.40
2024-05-09T09:56:10.249Z,1.80
2024-05-09T09:58:40.601Z,1.80
2024-05-09T10:01:09.155Z,2.10
2024-05-09T10:03:37.685Z,1.40
2024-05-09T10:06:08.623Z,1.40
2024-05-09T10:08:37.564Z,1.70
2024-05-09T10:11:06.301Z,1.70
2024-05-09T10:13:37.070Z,1.80
2024-05-09T10:16:12.073Z,1.90
2024-05-09T10:18:41.482Z,1.70
2024-05-09T10:21:20.206Z,1.70
2024-05-09T10:24:03.107Z,1.70
2024-05-09T10:26:36.083Z,1.70
2024-05-09T10:29:13.318Z,1.70
2024-05-09T10:31:42.836Z,1.40
2024-05-09T10:34:24.004Z,1.60
2024-05-09T10:36:54.602Z,1.60
2024-05-09T10:39:23.123Z,1.60
2024-05-09T10:41:51.085Z,1.80
2024-05-09T10:44:21.555Z,1.80
2024-05-09T10:46:50.471Z,1.50
2024-05-09T10:49:18.683Z,1.50
2024-05-09T10:51:48.393Z,2.00
2024-05-09T10:54:17.067Z,1.50
2024-05-09T10:56:45.138Z,2.00
2024-05-09T10:59:13.117Z,1.80
2024-05-09T11:01:41.459Z,1.90
2024-05-09T11:04:09.866Z,1.80
2024-05-09T11:06:39.031Z,2.10
2024-05-09T11:09:07.742Z,2.20
2024-05-09T11:11:36.018Z,2.00
2024-05-09T11:14:12.608Z,1.50
2024-05-09T11:16:40.534Z,1.80
2024-05-09T11:19:13.706Z,1.70
2024-05-09T11:21:41.922Z,1.70
2024-05-09T11:24:11.531Z,1.50
2024-05-09T11:26:39.851Z,1.60
2024-05-09T11:29:07.844Z,1.50
2024-05-09T11:31:46.503Z,1.60
2024-05-09T11:34:17.638Z,2.00
2024-05-09T11:36:45.842Z,1.60
2024-05-09T11:39:14.819Z,1.60
2024-05-09T11:41:42.979Z,1.80
2024-05-09T11:44:11.225Z,1.70
2024-05-09T11:46:39.264Z,1.80
2024-05-09T11:49:09.684Z,1.40
2024-05-09T11:51:37.982Z,1.60
2024-05-09T11:54:05.932Z,1.80
2024-05-09T11:56:33.904Z,2.00
2024-05-09T11:59:01.961Z,1.80
2024-05-09T12:01:30.023Z,1.40
2024-05-09T12:03:58.627Z,1.60
2024-05-09T12:06:27.087Z,1.80
2024-05-09T12:08:56.074Z,1.70
2024-05-09T12:11:24.132Z,1.40
2024-05-09T12:13:52.167Z,1.40
2024-05-09T12:16:20.300Z,1.60
2024-05-09T12:18:48.461Z,1.60
2024-05-09T12:21:17.441Z,1.80
2024-05-09T12:23:45.453Z,1.70
2024-05-09T12:26:15.761Z,1.40
2024-05-09T12:28:43.984Z,1.70
2024-05-09T12:31:11.990Z,1.60
2024-05-09T12:33:40.155Z,1.40
2024-05-09T12:36:08.158Z,1.50
2024-05-09T12:38:36.140Z,1.40
2024-05-09T12:41:04.355Z,1.60
2024-05-09T12:43:32.409Z,1.50
2024-05-09T12:46:00.646Z,1.70
2024-05-09T12:48:29.324Z,1.60
2024-05-09T12:50:57.564Z,1.70
2024-05-09T12:53:25.748Z,1.50
2024-05-09T12:55:57.249Z,1.30
2024-05-09T12:58:29.953Z,1.40
2024-05-09T13:00:58.101Z,1.40
2024-05-09T13:03:26.416Z,1.80
2024-05-09T13:05:54.614Z,1.50
2024-05-09T13:08:22.813Z,1.80
2024-05-09T13:10:51.159Z,1.90
2024-05-09T13:13:19.461Z,1.70
2024-05-09T13:15:47.823Z,1.70
2024-05-09T13:18:15.809Z,1.50
2024-05-09T13:20:44.228Z,1.40
2024-05-09T13:23:12.219Z,2.10
2024-05-09T13:25:40.442Z,1.90
2024-05-09T13:28:08.542Z,1.70
2024-05-09T13:30:40.794Z,1.80
2024-05-09T13:33:12.221Z,1.30
2024-05-09T13:35:46.865Z,1.60
2024-05-09T13:38:20.147Z,1.80
2024-05-09T13:40:49.213Z,1.70
2024-05-09T13:43:18.542Z,1.40
2024-05-09T13:45:47.463Z,4.40
2024-05-09T13:48:15.685Z,1.60
2024-05-09T13:50:43.893Z,1.70
2024-05-09T13:53:11.874Z,1.70
2024-05-09T13:55:40.798Z,1.60
2024-05-09T13:58:09.521Z,1.40
2024-05-09T14:00:45.197Z,1.50
2024-05-09T14:03:19.979Z,1.40
2024-05-09T14:05:51.271Z,1.60
2024-05-09T14:08:22.235Z,1.50
2024-05-09T14:10:51.132Z,1.70
2024-05-09T14:13:20.024Z,1.30
2024-05-09T14:15:48.412Z,1.50
2024-05-09T14:18:18.137Z,1.30
2024-05-09T14:20:46.098Z,1.50
2024-05-09T14:23:14.968Z,1.60
2024-05-09T14:25:44.485Z,1.50
2024-05-09T14:28:13.767Z,1.40
2024-05-09T14:30:42.617Z,1.90
2024-05-09T14:33:11.402Z,1.80
2024-05-09T14:35:39.788Z,1.90
2024-05-09T14:38:08.799Z,1.70
2024-05-09T14:40:42.329Z,2.10
2024-05-09T14:43:13.837Z,3.00
2024-05-09T14:45:43.583Z,2.30
2024-05-09T14:48:15.008Z,1.60
2024-05-09T14:50:43.389Z,1.60
2024-05-09T14:53:13.602Z,1.50
2024-05-09T14:55:43.402Z,2.10
2024-05-09T14:58:13.035Z,2.50
2024-05-09T15:00:46.471Z,1.90
2024-05-09T15:03:19.635Z,1.70
2024-05-09T15:05:48.419Z,1.60
2024-05-09T15:08:18.572Z,1.90
2024-05-09T15:10:49.628Z,1.70
2024-05-09T15:13:19.981Z,1.80
2024-05-09T15:15:48.795Z,1.80
2024-05-09T15:18:17.558Z,1.30
2024-05-09T15:20:46.063Z,1.60
2024-05-09T15:23:14.209Z,2.00
2024-05-09T15:38:09.637Z,2.50
2024-05-09T15:45:41.395Z,1.70
2024-05-09T15:48:11.221Z,2.20
2024-05-09T15:50:41.925Z,1.70
2024-05-09T15:53:13.275Z,2.20
2024-05-09T15:55:42.626Z,1.80
2024-05-09T16:00:42.420Z,1.70
2024-05-09T16:03:14.405Z,2.00
2024-05-09T16:08:14.485Z,1.80
2024-05-09T16:10:46.144Z,1.70
2024-05-09T16:13:16.041Z,2.10
2024-05-09T16:15:44.653Z,1.80
2024-05-09T16:18:12.964Z,1.70
2024-05-09T16:20:42.614Z,1.90
2024-05-09T16:23:12.851Z,1.70
2024-05-09T16:25:46.242Z,1.90
2024-05-09T16:28:14.393Z,2.00
2024-05-09T16:30:42.465Z,1.90
2024-05-09T16:33:11.781Z,1.80
2024-05-09T16:35:40.346Z,1.90
2024-05-09T16:38:08.893Z,2.20
2024-05-09T16:40:40.218Z,1.90
2024-05-09T16:43:11.228Z,2.70
2024-05-09T16:45:41.702Z,2.00
2024-05-09T16:48:10.276Z,2.00
2024-05-09T16:50:39.107Z,2.30
2024-05-09T16:53:07.643Z,2.20
2024-05-09T16:55:36.172Z,2.70
2024-05-09T17:13:18.533Z,2.30
2024-05-09T17:15:47.203Z,3.20
2024-05-09T17:18:15.904Z,2.70
2024-05-09T17:20:44.021Z,3.30
2024-05-09T17:23:14.842Z,2.90
2024-05-09T17:25:43.434Z,3.30
2024-05-09T17:28:12.307Z,3.60
2024-05-09T17:30:42.099Z,3.20
2024-05-09T17:33:12.703Z,2.90
2024-05-09T17:35:41.543Z,2.70
2024-05-09T17:38:09.592Z,3.00
2024-05-09T17:40:38.901Z,3.60
2024-05-09T17:43:09.849Z,11.80
2024-05-09T17:45:40.966Z,13.90
2024-05-09T17:48:11.765Z,11.00
2024-05-09T17:50:41.979Z,4.30
2024-05-09T17:53:11.247Z,3.30
2024-05-09T17:55:40.491Z,2.90
2024-05-09T17:58:09.699Z,2.60
2024-05-09T18:00:41.099Z,2.80
2024-05-09T18:03:12.312Z,3.10
2024-05-09T18:05:43.950Z,2.50
2024-05-09T18:08:13.379Z,2.50
2024-05-09T18:10:42.243Z,2.70
2024-05-09T18:13:12.276Z,2.80
2024-05-09T18:15:41.682Z,3.00
2024-05-09T18:18:10.658Z,2.60
2024-05-09T18:20:43.906Z,2.50
2024-05-09T18:23:16.665Z,4.80
2024-05-09T18:25:47.155Z,6.30
2024-05-09T18:28:17.089Z,6.70
2024-05-09T18:30:46.157Z,6.30
2024-05-09T18:33:14.837Z,2.60
2024-05-09T18:35:44.383Z,3.50
2024-05-09T18:38:12.786Z,5.60
2024-05-09T18:40:42.964Z,6.10
2024-05-09T18:43:13.231Z,5.80
2024-05-09T18:45:41.458Z,4.50
2024-05-09T18:48:10.017Z,4.50
2024-05-09T18:50:41.073Z,3.60
2024-05-09T18:53:12.252Z,2.80
2024-05-09T18:55:42.105Z,3.50
2024-05-09T18:58:10.296Z,3.20
2024-05-09T19:00:41.122Z,3.70
2024-05-09T19:03:13.292Z,4.50
2024-05-09T19:05:45.008Z,4.40
2024-05-09T19:08:15.352Z,3.30
2024-05-09T19:10:45.875Z,3.40
2024-05-09T19:13:15.018Z,3.50
2024-05-09T19:15:44.280Z,3.20
2024-05-09T19:18:14.113Z,3.40
2024-05-09T19:20:44.080Z,3.30
2024-05-09T19:23:12.671Z,2.70
2024-05-09T19:25:40.823Z,4.00
2024-05-09T19:28:09.293Z,6.10
2024-05-09T19:30:41.134Z,6.40
2024-05-09T19:33:13.276Z,5.60
2024-05-09T19:35:43.622Z,6.80
2024-05-09T19:38:12.575Z,6.20
2024-05-09T19:40:41.546Z,6.40
2024-05-09T19:43:09.778Z,5.30
2024-05-09T19:45:38.054Z,5.30
2024-05-09T19:48:06.932Z,4.90
2024-05-09T19:50:41.668Z,4.70
2024-05-09T19:53:14.234Z,4.50
2024-05-09T19:55:43.094Z,3.60
2024-05-09T19:58:12.088Z,3.60
2024-05-09T20:00:42.965Z,3.50
2024-05-09T20:03:14.326Z,3.60
2024-05-09T20:05:46.404Z,3.80
2024-05-09T20:08:15.104Z,4.00
2024-05-09T20:10:43.342Z,4.10
2024-05-09T20:13:11.729Z,4.00
2024-05-09T20:15:40.033Z,3.90
2024-05-09T20:18:08.401Z,3.90
2024-05-09T20:20:40.433Z,4.10
2024-05-09T20:23:12.311Z,4.20
2024-05-09T20:25:42.378Z,3.90
2024-05-09T20:28:10.995Z,4.30
2024-05-09T20:30:39.426Z,4.00
2024-05-09T20:33:08.970Z,4.30
2024-05-09T20:35:38.401Z,3.70
2024-05-09T20:38:07.340Z,3.80
2024-05-09T20:40:38.333Z,3.90
2024-05-09T20:43:09.685Z,3.80
2024-05-09T20:45:38.777Z,3.40
2024-05-09T20:48:08.321Z,4.40
2024-05-09T20:50:40.582Z,3.90
2024-05-09T20:53:12.154Z,3.90
2024-05-09T20:55:41.054Z,3.60
2024-05-09T20:58:10.281Z,4.00
2024-05-09T21:00:42.481Z,4.10
2024-05-09T21:03:16.183Z,3.90
2024-05-09T21:05:46.397Z,3.90
2024-05-09T21:08:15.224Z,3.90
2024-05-09T21:10:43.533Z,4.00
2024-05-09T21:13:12.086Z,4.10
2024-05-09T21:15:40.178Z,3.90
2024-05-09T21:18:08.626Z,3.60
2024-05-09T21:20:37.706Z,4.30
2024-05-09T21:23:05.933Z,3.70
2024-05-09T21:25:34.219Z,3.60
2024-05-09T21:28:03.358Z,4.40
2024-05-09T21:30:40.099Z,4.40
2024-05-09T21:33:13.664Z,4.30
2024-05-09T21:35:44.348Z,4.10
2024-05-09T21:38:14.537Z,4.20
2024-05-09T21:40:44.124Z,4.50
2024-05-09T21:43:12.549Z,4.20
2024-05-09T21:45:40.698Z,4.30
2024-05-09T21:48:09.127Z,3.90
2024-05-09T21:50:40.915Z,3.50
2024-05-09T21:53:12.505Z,4.30
2024-05-09T21:55:42.274Z,4.20
2024-05-09T21:58:12.241Z,4.90
2024-05-09T22:00:46.383Z,4.30
2024-05-09T22:03:15.556Z,4.50
2024-05-09T22:05:45.499Z,5.20
2024-05-09T22:08:13.813Z,4.70
2024-05-09T22:10:42.339Z,4.90
2024-05-09T22:13:11.392Z,4.10
2024-05-09T22:15:40.536Z,4.40
2024-05-09T22:18:10.765Z,6.00
2024-05-09T22:20:45.422Z,6.30
2024-05-09T22:23:15.570Z,5.70
2024-05-09T22:25:44.014Z,5.90
2024-05-09T22:28:15.001Z,4.70
2024-05-09T22:30:45.974Z,5.40
2024-05-09T22:33:15.375Z,5.10
2024-05-09T22:35:43.633Z,5.60
2024-05-09T22:38:11.736Z,5.60
2024-05-09T22:40:47.268Z,5.40
2024-05-09T22:43:20.807Z,5.00
2024-05-09T22:45:50.987Z,4.50
2024-05-09T22:48:19.394Z,4.70
2024-05-09T22:50:47.724Z,5.10
2024-05-09T22:53:15.735Z,5.30
2024-05-09T22:55:44.015Z,5.30
2024-05-09T22:58:12.043Z,5.00
2024-05-09T23:00:40.298Z,5.40
2024-05-09T23:03:09.092Z,6.10
2024-05-09T23:05:37.402Z,5.80
2024-05-09T23:08:05.724Z,7.10
2024-05-09T23:10:37.061Z,6.40
2024-05-09T23:15:38.650Z,7.00
2024-05-09T23:18:07.308Z,6.80
2024-05-09T23:20:39.226Z,8.20
2024-05-09T23:25:41.334Z,7.40
2024-05-09T23:28:10.798Z,6.80
2024-05-09T23:30:40.978Z,7.10
2024-05-09T23:33:12.230Z,5.80
2024-05-09T23:35:42.283Z,6.30
2024-05-09T23:38:10.414Z,6.60
2024-05-09T23:40:40.808Z,6.30
2024-05-09T23:43:11.614Z,6.20
2024-05-09T23:45:41.674Z,6.40
2024-05-09T23:48:11.167Z,6.00
2024-05-09T23:50:40.732Z,6.80
2024-05-09T23:53:10.398Z,6.20
2024-05-09T23:55:39.415Z,6.10
2024-05-09T23:58:09.636Z,6.70
